createdAt,value
2019-04-06T07:38:42.568Z,23.80
2019-04-06T07:39:47.926Z,23.60
2019-04-06T07:47:03.888Z,24.10
2019-04-06T07:54:53.152Z,24.30
2019-04-06T08:00:31.729Z,24.20
2019-04-06T08:04:39.855Z,24.40
2019-04-06T08:08:50.753Z,24.30
2019-04-06T08:12:57.579Z,24.30
2019-04-06T08:17:04.347Z,24.20
2019-04-06T08:19:46.425Z,24.20
2019-04-06T08:23:56.754Z,24.20
2019-04-06T08:25:45.614Z,24.20
2019-04-06T08:34:21.538Z,24.30
2019-04-06T08:35:28.173Z,24.40
2019-04-06T08:39:36.182Z,24.40
2019-04-06T08:43:37.603Z,24.30
2019-04-06T08:48:39.571Z,20.80
2019-04-06T08:54:31.303Z,15.90
2019-04-06T08:58:25.875Z,14.00
2019-04-06T09:02:57.016Z,13.50
2019-04-06T09:08:49.350Z,13.70
2019-04-06T09:12:45.025Z,13.50
2019-04-06T09:16:47.996Z,13.80
2019-04-06T09:20:51.969Z,13.90
2019-04-06T09:24:55.570Z,14.20
2019-04-06T09:29:01.683Z,14.50
2019-04-06T09:34:03.333Z,14.80
2019-04-06T09:38:04.434Z,15.10
2019-04-06T09:43:03.679Z,15.40
2019-04-06T09:47:05.593Z,15.40
2019-04-06T09:51:36.347Z,15.70
2019-04-06T09:56:14.329Z,15.60
2019-04-06T10:00:32.255Z,15.90
2019-04-06T10:04:59.839Z,15.80
2019-04-06T10:09:37.473Z,16.20
2019-04-06T10:15:09.379Z,15.80
2019-04-06T10:19:36.084Z,16.00
2019-04-06T10:27:39.121Z,15.80
2019-04-06T10:31:55.455Z,16.80
2019-04-06T10:36:19.398Z,17.00
2019-04-06T10:40:54.354Z,17.50
2019-04-06T10:45:20.852Z,17.40
2019-04-06T10:50:43.473Z,17.30
2019-04-06T10:55:04.002Z,17.40
2019-04-06T11:01:17.066Z,17.40
2019-04-06T11:09:13.860Z,17.50
2019-04-06T11:13:33.376Z,17.70
2019-04-06T11:18:09.081Z,17.80
2019-04-06T11:26:30.894Z,18.20
2019-04-06T11:30:54.090Z,18.50
2019-04-06T11:43:17.068Z,18.00
2019-04-06T11:47:45.642Z,18.20
2019-04-06T11:51:59.488Z,18.00
2019-04-06T12:00:03.526Z,18.20
2019-04-06T12:04:24.331Z,17.10
2019-04-06T12:14:31.256Z,18.00
2019-04-06T12:28:38.759Z,18.50
2019-04-06T12:32:43.824Z,18.90
2019-04-06T12:37:20.803Z,19.50
2019-04-06T12:45:44.570Z,18.70
2019-04-06T12:53:45.525Z,19.40
2019-04-06T13:03:49.835Z,19.70
2019-04-06T13:07:57.655Z,17.70
2019-04-06T13:12:14.005Z,17.50
2019-04-06T13:24:23.736Z,17.40
2019-04-06T13:28:40.522Z,18.20
2019-04-06T13:32:57.683Z,19.30
2019-04-06T13:37:29.056Z,19.10
2019-04-06T13:41:43.098Z,18.90
2019-04-06T14:18:35.507Z,17.90
2019-04-06T14:22:48.182Z,18.10
2019-04-06T14:30:53.270Z,18.30
2019-04-06T14:41:04.765Z,18.40
2019-04-06T14:46:18.967Z,19.20
2019-04-06T14:50:30.164Z,19.40
2019-04-06T14:54:42.550Z,18.50
2019-04-06T15:06:45.861Z,18.20
2019-04-06T15:24:45.052Z,18.50
2019-04-06T15:28:55.620Z,18.40
2019-04-06T15:33:21.364Z,18.60
2019-04-06T15:37:39.125Z,19.10
2019-04-06T15:42:03.773Z,19.50
2019-04-06T15:47:17.216Z,18.80
2019-04-06T15:51:44.793Z,18.40
2019-04-06T15:56:42.282Z,17.90
2019-04-06T16:00:54.576Z,18.00
2019-04-06T16:07:30.917Z,18.00
2019-04-06T16:11:44.112Z,18.00
2019-04-06T16:16:13.332Z,18.20
2019-04-06T16:21:20.894Z,18.20
2019-04-06T16:27:45.544Z,17.90
2019-04-06T16:33:53.645Z,17.60
2019-04-06T16:38:22.096Z,17.20
2019-04-06T16:46:26.821Z,17.00
2019-04-06T16:50:54.183Z,16.60
2019-04-06T16:55:11.045Z,16.60
2019-04-06T16:59:26.049Z,16.40
2019-04-06T17:05:36.634Z,16.40
2019-04-06T17:13:40.737Z,16.30
2019-04-06T17:19:49.533Z,16.10
2019-04-06T17:24:02.038Z,16.20
2019-04-06T17:28:16.064Z,16.00
2019-04-06T17:34:39.660Z,15.90
2019-04-06T17:40:58.445Z,15.60
2019-04-06T17:49:11.425Z,15.40
2019-04-06T17:53:36.929Z,14.80
2019-04-06T17:58:33.380Z,14.70
2019-04-06T18:02:57.371Z,14.60
2019-04-06T18:07:36.615Z,14.30
2019-04-06T18:12:11.390Z,14.10
2019-04-06T18:18:16.531Z,13.90
2019-04-06T18:22:12.356Z,14.10
2019-04-06T18:34:10.428Z,14.10
2019-04-06T18:41:55.450Z,14.00
2019-04-06T18:45:50.147Z,13.50
2019-04-06T18:49:53.475Z,13.50
2019-04-06T18:54:00.647Z,13.50
2019-04-06T18:58:14.429Z,13.60
2019-04-06T19:04:11.386Z,13.40
2019-04-06T19:12:22.259Z,13.30
2019-04-06T19:16:19.439Z,13.00
2019-04-06T19:20:22.523Z,13.00
2019-04-06T19:24:25.884Z,12.50
2019-04-06T19:28:30.008Z,12.50
2019-04-06T19:32:37.821Z,12.50
2019-04-06T19:36:40.663Z,12.60
2019-04-06T19:54:42.450Z,12.50
2019-04-06T20:00:31.965Z,12.40
2019-04-06T20:04:30.846Z,12.30
2019-04-06T20:10:33.240Z,12.20
2019-04-06T20:22:23.036Z,11.90
2019-04-06T20:26:17.293Z,11.50
2019-04-06T20:30:24.009Z,11.30
2019-04-06T20:34:29.794Z,11.20
2019-04-06T20:44:32.520Z,11.10
2019-04-06T21:21:04.064Z,10.20
2019-04-06T21:32:52.491Z,10.20
2019-04-06T21:36:47.296Z,10.00
2019-04-06T22:17:17.421Z,9.50
2019-04-06T22:31:04.230Z,8.80
2019-04-06T22:40:49.854Z,8.90
2019-04-06T22:44:45.249Z,8.80
2019-04-06T22:54:39.059Z,8.70
2019-04-06T22:58:33.434Z,8.50
2019-04-06T23:14:29.464Z,8.40
2019-04-06T23:18:24.056Z,8.40
2019-04-06T23:22:27.431Z,8.00
2019-04-06T23:26:36.081Z,7.90
2019-04-06T23:38:32.723Z,7.60
2019-04-06T23:42:27.187Z,7.90
